createdAt,value
2022-12-08T00:01:11.425Z,84.50
2022-12-08T00:04:13.368Z,84.60
2022-12-08T00:07:15.217Z,84.60
2022-12-08T00:10:47.114Z,84.70
2022-12-08T00:13:38.956Z,84.50
2022-12-08T00:16:40.873Z,84.70
2022-12-08T00:19:43.727Z,84.50
2022-12-08T00:22:45.557Z,84.70
2022-12-08T00:25:47.403Z,84.50
2022-12-08T00:28:49.260Z,84.60
2022-12-08T00:31:51.416Z,84.90
2022-12-08T00:34:53.345Z,84.80
2022-12-08T00:38:00.576Z,84.70
2022-12-08T00:41:04.435Z,84.60
2022-12-08T00:44:10.789Z,85.10
2022-12-08T00:47:13.425Z,85.10
2022-12-08T00:50:15.306Z,85.00
2022-12-08T00:53:17.096Z,85.10
2022-12-08T00:56:21.473Z,85.10
2022-12-08T00:59:23.314Z,84.70
2022-12-08T01:02:25.247Z,84.70
2022-12-08T01:05:27.153Z,84.90
2022-12-08T01:08:29.084Z,84.70
2022-12-08T01:11:32.280Z,84.80
2022-12-08T01:14:34.272Z,84.90
2022-12-08T01:17:37.897Z,84.60
2022-12-08T01:20:39.712Z,84.90
2022-12-08T01:23:41.544Z,84.40
2022-12-08T01:26:44.020Z,84.70
2022-12-08T01:29:45.952Z,84.70
2022-12-08T01:32:47.936Z,84.90
2022-12-08T01:35:49.780Z,84.80
2022-12-08T01:38:52.448Z,84.90
2022-12-08T01:41:54.289Z,84.90
2022-12-08T01:45:00.286Z,85.10
2022-12-08T01:48:08.289Z,85.10
2022-12-08T01:51:10.412Z,85.00
2022-12-08T01:54:13.557Z,84.80
2022-12-08T01:57:31.712Z,85.20
2022-12-08T02:00:33.641Z,84.90
2022-12-08T02:03:50.084Z,85.10
2022-12-08T02:06:52.754Z,84.90
2022-12-08T02:09:55.560Z,85.00
2022-12-08T02:12:59.116Z,85.00
2022-12-08T02:16:17.671Z,84.70
2022-12-08T02:19:44.090Z,84.40
2022-12-08T02:23:01.610Z,84.80
2022-12-08T02:26:37.197Z,84.90
2022-12-08T02:30:12.429Z,84.60
2022-12-08T02:33:48.139Z,84.50
2022-12-08T02:37:01.962Z,84.70
2022-12-08T02:40:18.742Z,84.50
2022-12-08T02:43:40.865Z,84.30
2022-12-08T02:46:59.119Z,84.50
2022-12-08T02:50:01.275Z,84.60
2022-12-08T02:53:03.520Z,84.70
2022-12-08T02:56:37.990Z,84.80
2022-12-08T02:59:45.690Z,84.50
2022-12-08T03:03:19.315Z,84.30
2022-12-08T03:06:36.206Z,84.40
2022-12-08T03:10:00.265Z,84.40
2022-12-08T03:13:15.645Z,84.50
2022-12-08T03:16:20.950Z,84.10
2022-12-08T03:19:27.694Z,84.50
2022-12-08T03:22:29.729Z,84.50
2022-12-08T03:25:36.670Z,84.40
2022-12-08T03:28:39.160Z,84.60
2022-12-08T03:31:53.862Z,84.90
2022-12-08T03:34:58.049Z,84.60
2022-12-08T03:38:09.106Z,84.80
2022-12-08T03:41:11.739Z,84.70
2022-12-08T03:44:13.621Z,84.70
2022-12-08T03:47:15.486Z,84.60
2022-12-08T03:50:17.527Z,84.70
2022-12-08T03:53:19.406Z,84.60
2022-12-08T03:56:27.300Z,84.70
2022-12-08T03:59:29.157Z,84.20
2022-12-08T04:02:31.030Z,84.20
2022-12-08T04:05:32.954Z,84.00
2022-12-08T04:08:34.868Z,84.00
2022-12-08T04:11:36.821Z,84.10
2022-12-08T04:14:38.676Z,83.90
2022-12-08T04:17:41.117Z,84.00
2022-12-08T04:20:44.782Z,84.10
2022-12-08T04:23:47.178Z,83.90
2022-12-08T04:26:49.090Z,83.60
2022-12-08T04:29:51.010Z,84.00
2022-12-08T04:32:52.882Z,83.60
2022-12-08T04:35:54.848Z,83.80
2022-12-08T04:38:56.705Z,84.10
2022-12-08T04:41:58.721Z,84.20
2022-12-08T04:45:03.216Z,84.10
2022-12-08T04:48:05.395Z,84.10
2022-12-08T04:51:12.319Z,84.10
2022-12-08T04:54:14.557Z,84.00
2022-12-08T04:57:16.677Z,84.20
2022-12-08T05:00:18.998Z,84.10
2022-12-08T05:03:28.100Z,83.80
2022-12-08T05:06:30.471Z,83.60
2022-12-08T05:09:34.882Z,83.50
2022-12-08T05:12:36.709Z,83.60
2022-12-08T05:15:38.612Z,83.60
2022-12-08T05:18:41.766Z,83.70
2022-12-08T05:21:44.149Z,83.90
2022-12-08T05:24:47.789Z,83.60
2022-12-08T05:27:50.123Z,83.60
2022-12-08T05:30:52.297Z,83.60
2022-12-08T05:33:54.639Z,83.60
2022-12-08T05:36:57.564Z,83.70
2022-12-08T05:39:59.418Z,83.40
2022-12-08T05:43:01.307Z,83.70
2022-12-08T05:46:05.712Z,83.40
2022-12-08T05:49:07.577Z,83.40
2022-12-08T05:52:09.915Z,83.80
2022-12-08T05:55:11.910Z,83.60
2022-12-08T05:58:16.379Z,84.00
2022-12-08T06:01:27.141Z,83.80
2022-12-08T06:04:29.017Z,83.60
2022-12-08T06:07:30.859Z,83.90
2022-12-08T06:10:32.711Z,83.50
2022-12-08T06:13:34.877Z,83.50
2022-12-08T06:16:36.836Z,83.50
2022-12-08T06:19:38.750Z,83.40
2022-12-08T06:22:40.595Z,83.60
2022-12-08T06:25:42.456Z,83.60
2022-12-08T06:28:44.629Z,83.40
2022-12-08T06:31:46.864Z,83.70
2022-12-08T06:34:48.784Z,83.70
2022-12-08T06:37:50.727Z,84.00
2022-12-08T06:40:57.314Z,83.90
2022-12-08T06:43:59.252Z,83.90
2022-12-08T06:47:01.122Z,83.90
2022-12-08T06:50:04.025Z,83.90
2022-12-08T06:53:06.069Z,84.10
2022-12-08T06:56:08.856Z,84.10
2022-12-08T06:59:10.656Z,83.90
2022-12-08T07:02:12.620Z,83.70
2022-12-08T07:05:14.587Z,83.90
2022-12-08T07:08:16.534Z,83.50
2022-12-08T07:11:22.070Z,83.50
2022-12-08T07:14:24.395Z,83.80
2022-12-08T07:17:26.281Z,83.50
2022-12-08T07:20:28.442Z,83.50
2022-12-08T07:23:30.337Z,83.50
2022-12-08T07:26:32.900Z,83.30
2022-12-08T07:29:34.712Z,83.60
2022-12-08T07:32:38.214Z,83.40
2022-12-08T07:35:43.834Z,83.50
2022-12-08T07:38:48.733Z,83.10
2022-12-08T07:41:50.563Z,82.90
2022-12-08T07:44:52.450Z,82.40
2022-12-08T07:47:54.316Z,82.50
2022-12-08T07:51:04.516Z,83.00
2022-12-08T07:54:06.403Z,82.50
2022-12-08T07:57:08.396Z,82.70
2022-12-08T08:00:11.313Z,82.80
2022-12-08T08:03:15.792Z,82.40
2022-12-08T08:06:17.742Z,82.60
2022-12-08T08:09:19.566Z,82.40
2022-12-08T08:12:36.732Z,82.20
2022-12-08T08:15:39.231Z,82.20
2022-12-08T08:18:41.227Z,82.40
2022-12-08T08:21:45.948Z,82.20
2022-12-08T08:24:48.162Z,82.10
2022-12-08T08:27:50.223Z,82.20
2022-12-08T08:30:52.139Z,81.90
2022-12-08T08:33:54.362Z,82.30
2022-12-08T08:36:56.233Z,82.40
2022-12-08T08:39:58.106Z,82.10
2022-12-08T08:43:04.045Z,81.90
2022-12-08T08:46:07.015Z,82.30
2022-12-08T08:49:09.289Z,82.30
2022-12-08T08:52:13.468Z,82.10
2022-12-08T08:55:15.304Z,82.10
2022-12-08T08:58:18.081Z,82.30
2022-12-08T09:01:22.665Z,82.10
2022-12-08T09:04:24.723Z,82.20
2022-12-08T09:07:26.731Z,82.20
2022-12-08T09:10:28.750Z,82.50
2022-12-08T09:13:30.591Z,82.20
2022-12-08T09:16:36.245Z,81.70
2022-12-08T09:19:40.902Z,82.20
2022-12-08T09:22:42.717Z,81.90
2022-12-08T09:25:45.077Z,82.20
2022-12-08T09:28:46.941Z,81.90
2022-12-08T09:31:49.024Z,82.40
2022-12-08T09:34:52.326Z,82.30
2022-12-08T09:37:54.429Z,82.30
2022-12-08T09:40:56.519Z,82.40
2022-12-08T09:44:18.339Z,81.90
2022-12-08T09:47:35.806Z,81.60
2022-12-08T09:50:45.516Z,81.90
2022-12-08T09:53:50.554Z,81.70
2022-12-08T09:56:56.856Z,81.40
2022-12-08T10:00:02.904Z,81.30
2022-12-08T10:03:16.596Z,80.90
2022-12-08T10:06:27.447Z,80.80
2022-12-08T10:09:34.051Z,80.40
2022-12-08T10:13:23.312Z,79.90
2022-12-08T10:16:34.466Z,79.70
2022-12-08T10:19:38.557Z,79.10
2022-12-08T10:22:44.728Z,78.40
2022-12-08T10:25:49.216Z,79.00
2022-12-08T10:28:51.245Z,79.00
2022-12-08T10:31:53.124Z,78.50
2022-12-08T10:35:07.489Z,78.50
2022-12-08T10:38:28.664Z,79.10
2022-12-08T10:41:30.425Z,79.10
2022-12-08T10:44:32.615Z,78.30
2022-12-08T10:47:43.697Z,77.60
2022-12-08T10:50:49.952Z,77.20
2022-12-08T10:53:51.802Z,77.60
2022-12-08T10:56:55.708Z,77.90
2022-12-08T10:59:57.719Z,77.90
2022-12-08T11:03:02.274Z,76.50
2022-12-08T11:06:18.854Z,76.00
2022-12-08T11:09:20.699Z,76.00
2022-12-08T11:12:23.372Z,75.30
2022-12-08T11:15:25.957Z,74.70
2022-12-08T11:18:40.713Z,74.90
2022-12-08T11:21:42.544Z,74.80
2022-12-08T11:24:44.417Z,73.20
2022-12-08T11:27:49.608Z,72.80
2022-12-08T11:31:04.297Z,72.90
2022-12-08T11:34:10.022Z,73.50
2022-12-08T11:37:21.056Z,72.60
2022-12-08T11:40:31.878Z,72.90
2022-12-08T11:43:33.706Z,73.70
2022-12-08T11:46:50.113Z,73.50
2022-12-08T12:03:31.198Z,72.20
2022-12-08T12:06:55.565Z,71.10
2022-12-08T12:10:18.931Z,70.30
2022-12-08T12:13:41.684Z,69.90
2022-12-08T12:17:05.232Z,70.00
2022-12-08T12:20:19.325Z,69.90
2022-12-08T12:23:48.474Z,70.50
2022-12-08T12:27:13.402Z,69.90
2022-12-08T12:30:24.390Z,71.70
2022-12-08T12:33:27.074Z,71.60
2022-12-08T12:36:29.295Z,71.50
2022-12-08T12:39:45.302Z,71.80
2022-12-08T12:43:12.737Z,71.40
2022-12-08T12:46:40.527Z,70.80
2022-12-08T12:49:42.401Z,71.00
2022-12-08T12:52:44.788Z,70.70
2022-12-08T12:55:46.671Z,70.80
2022-12-08T12:58:48.600Z,70.40
2022-12-08T13:01:57.120Z,70.30
2022-12-08T13:05:20.459Z,70.60
2022-12-08T13:08:25.980Z,70.80
2022-12-08T13:11:28.095Z,70.70
2022-12-08T13:14:36.398Z,71.60
2022-12-08T13:17:44.070Z,71.70
2022-12-08T13:20:50.714Z,72.00
2022-12-08T13:24:32.121Z,72.70
2022-12-08T13:27:35.031Z,71.90
2022-12-08T13:30:42.889Z,73.30
2022-12-08T13:33:45.000Z,72.90
2022-12-08T13:37:08.182Z,73.40
2022-12-08T13:40:18.377Z,72.50
2022-12-08T13:43:25.681Z,72.80
2022-12-08T13:47:31.533Z,73.10
2022-12-08T13:54:48.503Z,72.60
2022-12-08T13:57:11.646Z,72.70
2022-12-08T14:00:20.982Z,72.80
2022-12-08T14:03:23.127Z,73.80
2022-12-08T14:06:36.621Z,73.70
2022-12-08T14:09:39.910Z,73.20
2022-12-08T14:12:46.321Z,73.10
2022-12-08T14:15:48.195Z,73.30
2022-12-08T14:18:51.589Z,73.90
2022-12-08T14:22:02.140Z,73.20
2022-12-08T14:25:06.258Z,73.10
2022-12-08T14:28:11.285Z,73.00
2022-12-08T14:31:13.334Z,73.60
2022-12-08T14:34:15.380Z,73.90
2022-12-08T14:37:17.291Z,73.40
2022-12-08T14:40:23.045Z,73.80
2022-12-08T14:43:28.775Z,74.10
2022-12-08T14:46:33.289Z,73.70
2022-12-08T14:49:40.356Z,74.00
2022-12-08T14:52:45.337Z,74.00
2022-12-08T14:55:49.093Z,74.00
2022-12-08T14:59:04.183Z,74.30
2022-12-08T15:02:18.156Z,74.20
2022-12-08T15:05:21.727Z,74.00
2022-12-08T15:08:27.150Z,73.40
2022-12-08T15:11:35.431Z,73.80
2022-12-08T15:14:43.316Z,73.80
2022-12-08T15:17:51.135Z,72.90
2022-12-08T15:20:57.020Z,72.50
2022-12-08T15:23:59.026Z,72.40
2022-12-08T15:27:20.678Z,72.10
2022-12-08T15:30:22.805Z,71.70
2022-12-08T15:33:25.215Z,72.20
2022-12-08T15:36:27.828Z,72.40
2022-12-08T15:39:35.584Z,72.90
2022-12-08T15:42:37.758Z,72.30
2022-12-08T15:45:46.864Z,72.60
2022-12-08T15:48:45.863Z,72.30
2022-12-08T15:51:48.880Z,73.40
2022-12-08T15:54:51.155Z,73.30
2022-12-08T16:01:16.509Z,73.50
2022-12-08T16:05:25.295Z,73.00
2022-12-08T16:07:44.396Z,72.90
2022-12-08T16:11:34.169Z,72.70
2022-12-08T16:14:48.731Z,72.80
2022-12-08T16:17:32.234Z,72.80
2022-12-08T16:23:56.130Z,73.40
2022-12-08T16:30:22.186Z,72.20
2022-12-08T16:33:24.078Z,72.90
2022-12-08T16:36:26.075Z,72.80
2022-12-08T16:39:28.004Z,72.80
2022-12-08T16:42:31.646Z,72.90
2022-12-08T16:45:33.535Z,72.60
2022-12-08T16:48:35.520Z,71.70
2022-12-08T16:51:37.678Z,71.10
2022-12-08T16:54:39.638Z,71.70
2022-12-08T16:57:42.768Z,71.30
2022-12-08T17:00:45.541Z,72.50
2022-12-08T17:04:07.131Z,72.50
2022-12-08T17:07:09.323Z,71.70
2022-12-08T17:10:14.684Z,71.90
2022-12-08T17:13:16.679Z,72.00
2022-12-08T17:16:19.183Z,72.20
2022-12-08T17:19:21.204Z,71.80
2022-12-08T17:22:23.136Z,70.80
2022-12-08T17:25:26.908Z,70.70
2022-12-08T17:28:58.264Z,70.80
2022-12-08T17:31:51.273Z,71.20
2022-12-08T17:34:53.590Z,70.70
2022-12-08T17:37:55.513Z,70.90
2022-12-08T17:41:02.568Z,70.50
2022-12-08T17:44:10.882Z,70.00
2022-12-08T17:47:12.870Z,69.80
2022-12-08T17:50:14.832Z,69.90
2022-12-08T17:53:17.181Z,71.20
2022-12-08T17:56:21.440Z,72.30
2022-12-08T17:59:23.626Z,73.40
2022-12-08T18:02:25.703Z,74.00
2022-12-08T18:05:27.881Z,72.80
2022-12-08T18:08:29.821Z,71.20
2022-12-08T18:11:31.864Z,71.90
2022-12-08T18:14:33.867Z,70.60
2022-12-08T18:17:35.761Z,71.20
2022-12-08T18:20:37.694Z,71.70
2022-12-08T18:23:43.142Z,72.20
2022-12-08T18:26:45.612Z,71.60
2022-12-08T18:29:47.550Z,71.30
2022-12-08T18:32:54.190Z,71.30
2022-12-08T18:35:58.987Z,72.00
2022-12-08T18:39:03.474Z,72.70
2022-12-08T18:42:09.290Z,75.10
2022-12-08T18:45:11.441Z,75.70
2022-12-08T18:48:13.294Z,76.70
2022-12-08T18:51:17.810Z,77.30
2022-12-08T18:54:22.094Z,77.30
2022-12-08T18:57:31.947Z,77.10
2022-12-08T19:00:33.875Z,77.60
2022-12-08T19:03:35.871Z,77.40
2022-12-08T19:06:39.217Z,77.60
2022-12-08T19:09:41.080Z,77.50
2022-12-08T19:12:42.964Z,76.60
2022-12-08T19:15:45.474Z,76.70
2022-12-08T19:18:47.330Z,76.70
2022-12-08T19:21:50.125Z,75.10
2022-12-08T19:24:52.065Z,75.60
2022-12-08T19:27:54.064Z,75.50
2022-12-08T19:30:56.014Z,75.60
2022-12-08T19:33:57.987Z,75.80
2022-12-08T19:36:59.871Z,75.40
2022-12-08T19:40:01.962Z,75.30
2022-12-08T19:43:03.897Z,77.30
2022-12-08T19:46:07.276Z,78.70
2022-12-08T19:49:09.375Z,79.10
2022-12-08T19:52:11.320Z,79.90
2022-12-08T19:55:13.269Z,80.40
2022-12-08T19:58:15.392Z,80.30
2022-12-08T20:01:17.484Z,79.80
2022-12-08T20:04:19.524Z,79.70
2022-12-08T20:07:21.527Z,79.30
2022-12-08T20:10:27.093Z,78.80
2022-12-08T20:13:28.938Z,79.20
2022-12-08T20:16:30.936Z,79.20
2022-12-08T20:19:33.071Z,78.90
2022-12-08T20:22:35.702Z,79.00
2022-12-08T20:25:38.811Z,78.00
2022-12-08T20:28:40.587Z,78.80
2022-12-08T20:31:43.205Z,79.10
2022-12-08T20:34:45.253Z,79.00
2022-12-08T20:37:47.326Z,79.10
2022-12-08T20:40:49.377Z,79.00
2022-12-08T20:43:51.823Z,78.70
2022-12-08T20:46:53.928Z,79.30
2022-12-08T20:49:56.000Z,80.50
2022-12-08T20:52:58.227Z,80.50
2022-12-08T20:56:00.173Z,80.20
2022-12-08T20:59:02.360Z,80.30
2022-12-08T21:02:04.937Z,80.20
2022-12-08T21:05:08.034Z,79.50
2022-12-08T21:08:10.106Z,79.20
2022-12-08T21:11:12.037Z,79.10
2022-12-08T21:14:14.058Z,79.10
2022-12-08T21:17:16.020Z,80.60
2022-12-08T21:20:18.099Z,81.70
2022-12-08T21:23:20.169Z,81.70
2022-12-08T21:26:23.926Z,82.30
2022-12-08T21:29:25.989Z,82.60
2022-12-08T21:32:30.706Z,82.80
2022-12-08T21:35:33.151Z,82.90
2022-12-08T21:38:36.958Z,82.00
2022-12-08T21:41:39.755Z,82.40
2022-12-08T21:44:41.746Z,82.30
2022-12-08T21:47:45.144Z,82.50
2022-12-08T21:50:47.230Z,81.40
2022-12-08T21:53:49.305Z,81.30
2022-12-08T21:56:51.755Z,80.90
2022-12-08T21:59:55.596Z,80.60
2022-12-08T22:02:58.293Z,81.10
2022-12-08T22:06:08.205Z,80.20
2022-12-08T22:09:10.334Z,80.40
2022-12-08T22:12:12.886Z,80.80
2022-12-08T22:15:15.429Z,81.00
2022-12-08T22:18:17.439Z,81.40
2022-12-08T22:21:19.662Z,82.20
2022-12-08T22:24:21.781Z,82.60
2022-12-08T22:27:23.736Z,82.40
2022-12-08T22:30:25.752Z,82.10
2022-12-08T22:33:30.923Z,81.50
2022-12-08T22:36:33.324Z,81.40
2022-12-08T22:39:35.709Z,80.60
2022-12-08T22:42:37.701Z,80.70
2022-12-08T22:45:39.724Z,80.50
2022-12-08T22:48:41.751Z,80.80
2022-12-08T22:51:43.893Z,80.60
2022-12-08T22:54:45.916Z,80.60
2022-12-08T22:57:48.018Z,81.60
2022-12-08T23:00:50.527Z,81.70
2022-12-08T23:03:52.595Z,81.30
2022-12-08T23:06:54.625Z,81.30
2022-12-08T23:09:56.577Z,81.30
2022-12-08T23:13:03.515Z,81.40
2022-12-08T23:16:09.683Z,81.30
2022-12-08T23:19:11.877Z,81.30
2022-12-08T23:22:13.953Z,81.20
2022-12-08T23:25:18.149Z,81.20
2022-12-08T23:28:20.181Z,80.80
2022-12-08T23:31:22.944Z,81.10
2022-12-08T23:34:25.113Z,81.00
2022-12-08T23:37:28.501Z,81.00
2022-12-08T23:40:30.544Z,81.10
2022-12-08T23:43:33.361Z,81.10
2022-12-08T23:46:35.400Z,81.00
2022-12-08T23:49:37.372Z,81.10
2022-12-08T23:52:39.999Z,81.60
2022-12-08T23:55:44.086Z,81.90
2022-12-08T23:58:46.674Z,81.50
